sensor_id;sensor_type;location;lat;lon;timestamp;P1;durP1;ratioP1;P2;durP2;ratioP2
78183;SDS011;67442;44.570;18.610;2023-04-24T00:00:30;14.43;;;6.03;;
78183;SDS011;67442;44.570;18.610;2023-04-24T00:02:57;15.57;;;6.25;;
78183;SDS011;67442;44.570;18.610;2023-04-24T00:05:24;15.88;;;6.45;;
78183;SDS011;67442;44.570;18.610;2023-04-24T00:07:52;15.10;;;6.30;;
78183;SDS011;67442;44.570;18.610;2023-04-24T00:10:19;14.20;;;6.05;;
78183;SDS011;67442;44.570;18.610;2023-04-24T00:12:51;16.23;;;5.47;;
78183;SDS011;67442;44.570;18.610;2023-04-24T00:15:18;16.35;;;6.43;;
78183;SDS011;67442;44.570;18.610;2023-04-24T00:17:45;13.85;;;6.22;;
78183;SDS011;67442;44.570;18.610;2023-04-24T00:20:13;13.25;;;6.03;;
78183;SDS011;67442;44.570;18.610;2023-04-24T00:22:40;13.15;;;6.05;;
78183;SDS011;67442;44.570;18.610;2023-04-24T00:25:07;13.75;;;6.65;;
78183;SDS011;67442;44.570;18.610;2023-04-24T00:27:35;11.82;;;6.25;;
78183;SDS011;67442;44.570;18.610;2023-04-24T00:30:04;16.02;;;6.35;;
78183;SDS011;67442;44.570;18.610;2023-04-24T00:32:34;14.60;;;6.45;;
78183;SDS011;67442;44.570;18.610;2023-04-24T00:35:01;13.40;;;5.95;;
78183;SDS011;67442;44.570;18.610;2023-04-24T00:37:30;12.90;;;6.70;;
78183;SDS011;67442;44.570;18.610;2023-04-24T00:39:57;15.98;;;5.93;;
78183;SDS011;67442;44.570;18.610;2023-04-24T00:42:23;13.40;;;6.22;;
78183;SDS011;67442;44.570;18.610;2023-04-24T00:44:50;13.60;;;6.25;;
78183;SDS011;67442;44.570;18.610;2023-04-24T00:47:21;15.05;;;5.88;;
78183;SDS011;67442;44.570;18.610;2023-04-24T00:49:52;15.57;;;6.10;;
78183;SDS011;67442;44.570;18.610;2023-04-24T00:52:19;13.38;;;5.45;;
78183;SDS011;67442;44.570;18.610;2023-04-24T00:54:49;13.70;;;5.82;;
78183;SDS011;67442;44.570;18.610;2023-04-24T00:57:17;13.27;;;5.93;;
78183;SDS011;67442;44.570;18.610;2023-04-24T00:59:44;15.52;;;6.57;;
78183;SDS011;67442;44.570;18.610;2023-04-24T01:02:16;13.65;;;6.35;;
78183;SDS011;67442;44.570;18.610;2023-04-24T01:04:45;14.32;;;5.53;;
78183;SDS011;67442;44.570;18.610;2023-04-24T01:07:13;12.38;;;5.72;;
78183;SDS011;67442;44.570;18.610;2023-04-24T01:09:44;13.77;;;6.15;;
78183;SDS011;67442;44.570;18.610;2023-04-24T01:12:14;12.80;;;5.50;;
78183;SDS011;67442;44.570;18.610;2023-04-24T01:14:45;11.15;;;5.93;;
78183;SDS011;67442;44.570;18.610;2023-04-24T01:17:11;15.32;;;5.97;;
78183;SDS011;67442;44.570;18.610;2023-04-24T01:19:38;13.30;;;6.45;;
78183;SDS011;67442;44.570;18.610;2023-04-24T01:22:15;17.25;;;6.85;;
78183;SDS011;67442;44.570;18.610;2023-04-24T01:24:42;13.93;;;6.22;;
78183;SDS011;67442;44.570;18.610;2023-04-24T01:27:10;15.38;;;5.68;;
78183;SDS011;67442;44.570;18.610;2023-04-24T01:29:40;12.63;;;5.32;;
78183;SDS011;67442;44.570;18.610;2023-04-24T01:32:07;11.63;;;5.32;;
78183;SDS011;67442;44.570;18.610;2023-04-24T01:34:34;14.45;;;5.43;;
78183;SDS011;67442;44.570;18.610;2023-04-24T01:37:03;12.23;;;5.25;;
78183;SDS011;67442;44.570;18.610;2023-04-24T01:39:30;14.48;;;5.45;;
78183;SDS011;67442;44.570;18.610;2023-04-24T01:41:59;12.73;;;5.60;;
78183;SDS011;67442;44.570;18.610;2023-04-24T01:44:28;12.65;;;5.68;;
78183;SDS011;67442;44.570;18.610;2023-04-24T01:46:54;15.23;;;6.28;;
78183;SDS011;67442;44.570;18.610;2023-04-24T01:49:21;12.25;;;6.18;;
78183;SDS011;67442;44.570;18.610;2023-04-24T01:51:48;15.18;;;5.30;;
78183;SDS011;67442;44.570;18.610;2023-04-24T01:54:16;15.05;;;5.68;;
78183;SDS011;67442;44.570;18.610;2023-04-24T01:56:43;12.30;;;5.72;;
78183;SDS011;67442;44.570;18.610;2023-04-24T01:59:11;14.70;;;5.35;;
78183;SDS011;67442;44.570;18.610;2023-04-24T02:01:38;11.32;;;5.47;;
78183;SDS011;67442;44.570;18.610;2023-04-24T02:04:06;12.70;;;5.32;;
78183;SDS011;67442;44.570;18.610;2023-04-24T02:06:33;12.68;;;5.68;;
78183;SDS011;67442;44.570;18.610;2023-04-24T02:09:00;13.32;;;5.68;;
78183;SDS011;67442;44.570;18.610;2023-04-24T02:11:28;14.02;;;5.47;;
78183;SDS011;67442;44.570;18.610;2023-04-24T02:13:55;12.32;;;5.40;;
78183;SDS011;67442;44.570;18.610;2023-04-24T02:16:22;18.27;;;5.93;;
78183;SDS011;67442;44.570;18.610;2023-04-24T02:18:49;14.43;;;5.35;;
78183;SDS011;67442;44.570;18.610;2023-04-24T02:21:18;13.95;;;5.20;;
78183;SDS011;67442;44.570;18.610;2023-04-24T02:23:45;10.25;;;4.90;;
78183;SDS011;67442;44.570;18.610;2023-04-24T02:26:13;13.20;;;5.25;;
78183;SDS011;67442;44.570;18.610;2023-04-24T02:28:40;10.25;;;5.28;;
78183;SDS011;67442;44.570;18.610;2023-04-24T02:31:08;11.63;;;5.43;;
78183;SDS011;67442;44.570;18.610;2023-04-24T02:33:39;13.38;;;5.53;;
78183;SDS011;67442;44.570;18.610;2023-04-24T02:36:06;13.30;;;5.18;;
78183;SDS011;67442;44.570;18.610;2023-04-24T02:38:34;9.88;;;4.70;;
78183;SDS011;67442;44.570;18.610;2023-04-24T02:41:01;13.82;;;4.85;;
78183;SDS011;67442;44.570;18.610;2023-04-24T02:43:32;19.38;;;4.95;;
78183;SDS011;67442;44.570;18.610;2023-04-24T02:45:59;12.60;;;5.28;;
78183;SDS011;67442;44.570;18.610;2023-04-24T02:48:27;14.45;;;5.75;;
78183;SDS011;67442;44.570;18.610;2023-04-24T02:50:54;11.52;;;5.00;;
78183;SDS011;67442;44.570;18.610;2023-04-24T02:53:23;12.07;;;5.57;;
78183;SDS011;67442;44.570;18.610;2023-04-24T02:55:50;9.85;;;4.82;;
78183;SDS011;67442;44.570;18.610;2023-04-24T02:58:20;10.10;;;5.07;;
78183;SDS011;67442;44.570;18.610;2023-04-24T03:00:47;14.30;;;5.78;;
78183;SDS011;67442;44.570;18.610;2023-04-24T03:03:14;12.57;;;5.63;;
78183;SDS011;67442;44.570;18.610;2023-04-24T03:05:42;11.35;;;5.22;;
78183;SDS011;67442;44.570;18.610;2023-04-24T03:08:09;11.45;;;5.30;;
78183;SDS011;67442;44.570;18.610;2023-04-24T03:10:36;10.93;;;5.40;;
78183;SDS011;67442;44.570;18.610;2023-04-24T03:13:04;12.73;;;5.68;;
78183;SDS011;67442;44.570;18.610;2023-04-24T03:15:31;11.30;;;4.80;;
78183;SDS011;67442;44.570;18.610;2023-04-24T03:17:58;10.25;;;4.90;;
78183;SDS011;67442;44.570;18.610;2023-04-24T03:20:26;10.85;;;4.60;;
78183;SDS011;67442;44.570;18.610;2023-04-24T03:22:53;8.85;;;4.80;;
78183;SDS011;67442;44.570;18.610;2023-04-24T03:25:21;11.02;;;4.65;;
78183;SDS011;67442;44.570;18.610;2023-04-24T03:27:53;13.18;;;4.90;;
78183;SDS011;67442;44.570;18.610;2023-04-24T03:30:20;10.10;;;4.72;;
78183;SDS011;67442;44.570;18.610;2023-04-24T03:32:47;9.43;;;4.78;;
78183;SDS011;67442;44.570;18.610;2023-04-24T03:35:15;8.57;;;4.13;;
78183;SDS011;67442;44.570;18.610;2023-04-24T03:37:42;9.57;;;5.20;;
78183;SDS011;67442;44.570;18.610;2023-04-24T03:40:09;9.32;;;4.85;;
78183;SDS011;67442;44.570;18.610;2023-04-24T03:42:38;10.75;;;4.57;;
78183;SDS011;67442;44.570;18.610;2023-04-24T03:45:04;12.05;;;4.47;;
78183;SDS011;67442;44.570;18.610;2023-04-24T03:47:35;7.65;;;4.47;;
78183;SDS011;67442;44.570;18.610;2023-04-24T03:50:02;9.82;;;5.13;;
78183;SDS011;67442;44.570;18.610;2023-04-24T03:52:30;10.00;;;4.50;;
78183;SDS011;67442;44.570;18.610;2023-04-24T03:54:58;9.75;;;4.60;;
78183;SDS011;67442;44.570;18.610;2023-04-24T03:57:25;9.95;;;4.72;;
78183;SDS011;67442;44.570;18.610;2023-04-24T03:59:52;8.88;;;4.68;;
78183;SDS011;67442;44.570;18.610;2023-04-24T04:02:23;9.40;;;4.18;;
78183;SDS011;67442;44.570;18.610;2023-04-24T04:04:53;10.40;;;4.38;;
78183;SDS011;67442;44.570;18.610;2023-04-24T04:07:20;8.73;;;4.40;;
78183;SDS011;67442;44.570;18.610;2023-04-24T04:09:48;9.60;;;4.75;;
78183;SDS011;67442;44.570;18.610;2023-04-24T04:12:19;8.27;;;4.07;;
78183;SDS011;67442;44.570;18.610;2023-04-24T04:14:46;10.10;;;4.88;;
78183;SDS011;67442;44.570;18.610;2023-04-24T04:17:14;15.27;;;5.00;;
78183;SDS011;67442;44.570;18.610;2023-04-24T04:19:41;10.95;;;4.20;;
78183;SDS011;67442;44.570;18.610;2023-04-24T04:22:12;11.82;;;5.03;;
78183;SDS011;67442;44.570;18.610;2023-04-24T04:24:39;7.85;;;4.07;;
78183;SDS011;67442;44.570;18.610;2023-04-24T04:27:06;10.00;;;4.95;;
78183;SDS011;67442;44.570;18.610;2023-04-24T04:29:33;9.18;;;4.82;;
78183;SDS011;67442;44.570;18.610;2023-04-24T04:32:00;8.00;;;4.30;;
78183;SDS011;67442;44.570;18.610;2023-04-24T04:34:28;8.23;;;4.05;;
78183;SDS011;67442;44.570;18.610;2023-04-24T04:36:57;11.82;;;5.38;;
78183;SDS011;67442;44.570;18.610;2023-04-24T04:39:27;46.42;;;9.55;;
78183;SDS011;67442;44.570;18.610;2023-04-24T04:41:54;121.05;;;21.08;;
78183;SDS011;67442;44.570;18.610;2023-04-24T04:44:21;121.65;;;19.38;;
78183;SDS011;67442;44.570;18.610;2023-04-24T04:46:49;102.60;;;22.35;;
78183;SDS011;67442;44.570;18.610;2023-04-24T04:49:18;88.07;;;20.70;;
78183;SDS011;67442;44.570;18.610;2023-04-24T04:51:47;107.97;;;21.90;;
78183;SDS011;67442;44.570;18.610;2023-04-24T04:54:14;113.55;;;24.65;;
78183;SDS011;67442;44.570;18.610;2023-04-24T04:56:41;140.05;;;28.20;;
78183;SDS011;67442;44.570;18.610;2023-04-24T04:59:13;151.40;;;28.77;;
78183;SDS011;67442;44.570;18.610;2023-04-24T05:01:40;138.02;;;27.15;;
78183;SDS011;67442;44.570;18.610;2023-04-24T05:04:08;146.18;;;28.45;;
78183;SDS011;67442;44.570;18.610;2023-04-24T05:06:35;156.93;;;28.15;;
78183;SDS011;67442;44.570;18.610;2023-04-24T05:09:02;154.60;;;28.83;;
78183;SDS011;67442;44.570;18.610;2023-04-24T05:11:30;147.68;;;28.58;;
78183;SDS011;67442;44.570;18.610;2023-04-24T05:13:57;128.55;;;26.85;;
78183;SDS011;67442;44.570;18.610;2023-04-24T05:16:25;137.75;;;27.92;;
78183;SDS011;67442;44.570;18.610;2023-04-24T05:18:52;128.07;;;27.95;;
78183;SDS011;67442;44.570;18.610;2023-04-24T05:21:20;126.43;;;28.30;;
78183;SDS011;67442;44.570;18.610;2023-04-24T05:23:47;133.40;;;26.27;;
78183;SDS011;67442;44.570;18.610;2023-04-24T05:26:18;125.70;;;26.20;;
78183;SDS011;67442;44.570;18.610;2023-04-24T05:28:45;121.00;;;27.27;;
78183;SDS011;67442;44.570;18.610;2023-04-24T05:31:13;129.07;;;25.50;;
78183;SDS011;67442;44.570;18.610;2023-04-24T05:33:40;116.47;;;26.10;;
78183;SDS011;67442;44.570;18.610;2023-04-24T05:36:08;129.38;;;25.83;;
78183;SDS011;67442;44.570;18.610;2023-04-24T05:38:35;105.07;;;23.92;;
78183;SDS011;67442;44.570;18.610;2023-04-24T05:41:02;113.95;;;24.27;;
78183;SDS011;67442;44.570;18.610;2023-04-24T05:43:29;99.20;;;23.60;;
78183;SDS011;67442;44.570;18.610;2023-04-24T05:45:58;108.45;;;24.13;;
78183;SDS011;67442;44.570;18.610;2023-04-24T05:48:25;107.30;;;23.20;;
78183;SDS011;67442;44.570;18.610;2023-04-24T05:50:52;119.90;;;24.50;;
78183;SDS011;67442;44.570;18.610;2023-04-24T05:53:20;104.35;;;23.30;;
78183;SDS011;67442;44.570;18.610;2023-04-24T05:55:47;108.40;;;23.48;;
78183;SDS011;67442;44.570;18.610;2023-04-24T05:58:14;105.38;;;23.95;;
78183;SDS011;67442;44.570;18.610;2023-04-24T06:00:41;106.63;;;23.25;;
78183;SDS011;67442;44.570;18.610;2023-04-24T06:03:10;108.63;;;23.45;;
78183;SDS011;67442;44.570;18.610;2023-04-24T06:05:37;101.43;;;21.35;;
78183;SDS011;67442;44.570;18.610;2023-04-24T06:08:05;95.22;;;23.05;;
78183;SDS011;67442;44.570;18.610;2023-04-24T06:10:32;86.22;;;21.73;;
78183;SDS011;67442;44.570;18.610;2023-04-24T06:12:59;90.97;;;21.10;;
78183;SDS011;67442;44.570;18.610;2023-04-24T06:15:28;101.15;;;21.88;;
78183;SDS011;67442;44.570;18.610;2023-04-24T06:17:56;87.97;;;21.45;;
78183;SDS011;67442;44.570;18.610;2023-04-24T06:20:23;80.93;;;22.70;;
78183;SDS011;67442;44.570;18.610;2023-04-24T06:22:49;83.38;;;19.85;;
78183;SDS011;67442;44.570;18.610;2023-04-24T06:25:16;76.57;;;20.65;;
78183;SDS011;67442;44.570;18.610;2023-04-24T06:27:44;86.93;;;21.90;;
78183;SDS011;67442;44.570;18.610;2023-04-24T06:30:11;81.88;;;21.60;;
78183;SDS011;67442;44.570;18.610;2023-04-24T06:32:38;94.47;;;20.75;;
78183;SDS011;67442;44.570;18.610;2023-04-24T06:35:06;80.63;;;20.38;;
78183;SDS011;67442;44.570;18.610;2023-04-24T06:37:35;70.18;;;19.77;;
78183;SDS011;67442;44.570;18.610;2023-04-24T06:40:02;80.28;;;19.55;;
78183;SDS011;67442;44.570;18.610;2023-04-24T06:42:32;77.45;;;19.65;;
78183;SDS011;67442;44.570;18.610;2023-04-24T06:45:00;75.07;;;19.65;;
78183;SDS011;67442;44.570;18.610;2023-04-24T06:47:27;74.70;;;19.20;;
78183;SDS011;67442;44.570;18.610;2023-04-24T06:49:54;69.57;;;18.85;;
78183;SDS011;67442;44.570;18.610;2023-04-24T06:52:25;89.07;;;19.25;;
78183;SDS011;67442;44.570;18.610;2023-04-24T06:54:52;72.28;;;18.95;;
78183;SDS011;67442;44.570;18.610;2023-04-24T06:57:31;72.80;;;19.63;;
78183;SDS011;67442;44.570;18.610;2023-04-24T06:59:57;70.28;;;19.23;;
78183;SDS011;67442;44.570;18.610;2023-04-24T07:02:24;82.10;;;18.67;;
78183;SDS011;67442;44.570;18.610;2023-04-24T07:04:52;59.17;;;16.88;;
78183;SDS011;67442;44.570;18.610;2023-04-24T07:07:19;68.20;;;18.65;;
78183;SDS011;67442;44.570;18.610;2023-04-24T07:09:46;67.75;;;18.83;;
78183;SDS011;67442;44.570;18.610;2023-04-24T07:12:16;60.88;;;18.13;;
78183;SDS011;67442;44.570;18.610;2023-04-24T07:14:46;70.30;;;18.92;;
78183;SDS011;67442;44.570;18.610;2023-04-24T07:17:13;54.90;;;17.42;;
78183;SDS011;67442;44.570;18.610;2023-04-24T07:19:44;70.47;;;18.23;;
78183;SDS011;67442;44.570;18.610;2023-04-24T07:22:11;64.05;;;17.05;;
78183;SDS011;67442;44.570;18.610;2023-04-24T07:24:43;59.17;;;17.27;;
78183;SDS011;67442;44.570;18.610;2023-04-24T07:27:09;67.20;;;17.60;;
78183;SDS011;67442;44.570;18.610;2023-04-24T07:29:39;68.20;;;17.85;;
78183;SDS011;67442;44.570;18.610;2023-04-24T07:32:05;59.75;;;16.33;;
78183;SDS011;67442;44.570;18.610;2023-04-24T07:34:33;50.30;;;16.05;;
78183;SDS011;67442;44.570;18.610;2023-04-24T07:36:59;63.95;;;17.55;;
78183;SDS011;67442;44.570;18.610;2023-04-24T07:39:27;61.72;;;16.38;;
78183;SDS011;67442;44.570;18.610;2023-04-24T07:41:57;51.03;;;16.40;;
78183;SDS011;67442;44.570;18.610;2023-04-24T07:44:27;57.60;;;16.17;;
78183;SDS011;67442;44.570;18.610;2023-04-24T07:46:54;54.47;;;16.35;;
78183;SDS011;67442;44.570;18.610;2023-04-24T07:49:26;51.15;;;16.65;;
78183;SDS011;67442;44.570;18.610;2023-04-24T07:51:53;63.33;;;16.67;;
78183;SDS011;67442;44.570;18.610;2023-04-24T07:54:20;51.53;;;15.90;;
78183;SDS011;67442;44.570;18.610;2023-04-24T07:56:48;51.38;;;16.05;;
78183;SDS011;67442;44.570;18.610;2023-04-24T07:59:15;54.00;;;15.23;;
78183;SDS011;67442;44.570;18.610;2023-04-24T08:01:43;58.97;;;15.65;;
78183;SDS011;67442;44.570;18.610;2023-04-24T08:04:11;54.15;;;15.50;;
78183;SDS011;67442;44.570;18.610;2023-04-24T08:06:38;62.13;;;16.35;;
78183;SDS011;67442;44.570;18.610;2023-04-24T08:09:05;56.13;;;16.05;;
78183;SDS011;67442;44.570;18.610;2023-04-24T08:11:32;55.00;;;15.63;;
78183;SDS011;67442;44.570;18.610;2023-04-24T08:14:00;48.72;;;15.63;;
78183;SDS011;67442;44.570;18.610;2023-04-24T08:16:27;46.72;;;14.93;;
78183;SDS011;67442;44.570;18.610;2023-04-24T08:18:54;52.90;;;15.50;;
78183;SDS011;67442;44.570;18.610;2023-04-24T08:21:22;47.42;;;15.35;;
78183;SDS011;67442;44.570;18.610;2023-04-24T08:23:49;50.30;;;15.30;;
78183;SDS011;67442;44.570;18.610;2023-04-24T08:26:16;51.58;;;14.48;;
78183;SDS011;67442;44.570;18.610;2023-04-24T08:28:43;45.47;;;14.68;;
78183;SDS011;67442;44.570;18.610;2023-04-24T08:31:11;50.78;;;14.68;;
78183;SDS011;67442;44.570;18.610;2023-04-24T08:33:39;43.60;;;14.50;;
78183;SDS011;67442;44.570;18.610;2023-04-24T08:36:06;44.40;;;14.27;;
78183;SDS011;67442;44.570;18.610;2023-04-24T08:38:33;49.58;;;14.75;;
78183;SDS011;67442;44.570;18.610;2023-04-24T08:41:01;51.53;;;16.27;;
78183;SDS011;67442;44.570;18.610;2023-04-24T08:43:32;39.65;;;14.27;;
78183;SDS011;67442;44.570;18.610;2023-04-24T08:46:04;48.25;;;14.65;;
78183;SDS011;67442;44.570;18.610;2023-04-24T08:48:31;46.25;;;14.13;;
78183;SDS011;67442;44.570;18.610;2023-04-24T08:50:59;45.08;;;14.73;;
78183;SDS011;67442;44.570;18.610;2023-04-24T08:53:27;41.83;;;14.15;;
78183;SDS011;67442;44.570;18.610;2023-04-24T08:55:56;46.50;;;14.57;;
78183;SDS011;67442;44.570;18.610;2023-04-24T08:58:27;45.90;;;14.10;;
78183;SDS011;67442;44.570;18.610;2023-04-24T09:00:54;41.30;;;13.52;;
78183;SDS011;67442;44.570;18.610;2023-04-24T09:03:21;35.83;;;13.13;;
78183;SDS011;67442;44.570;18.610;2023-04-24T09:05:48;40.50;;;14.15;;
78183;SDS011;67442;44.570;18.610;2023-04-24T09:08:17;42.78;;;13.68;;
78183;SDS011;67442;44.570;18.610;2023-04-24T09:10:49;40.78;;;13.60;;
78183;SDS011;67442;44.570;18.610;2023-04-24T09:13:17;44.58;;;13.77;;
78183;SDS011;67442;44.570;18.610;2023-04-24T09:15:46;36.05;;;13.55;;
78183;SDS011;67442;44.570;18.610;2023-04-24T09:18:16;40.03;;;13.75;;
78183;SDS011;67442;44.570;18.610;2023-04-24T09:21:03;34.80;;;13.43;;
78183;SDS011;67442;44.570;18.610;2023-04-24T09:23:32;41.83;;;14.50;;
78183;SDS011;67442;44.570;18.610;2023-04-24T09:26:03;40.60;;;13.55;;
78183;SDS011;67442;44.570;18.610;2023-04-24T09:28:37;42.03;;;13.63;;
78183;SDS011;67442;44.570;18.610;2023-04-24T09:31:07;41.80;;;13.85;;
78183;SDS011;67442;44.570;18.610;2023-04-24T09:36:26;37.70;;;13.25;;
78183;SDS011;67442;44.570;18.610;2023-04-24T09:38:59;34.80;;;13.32;;
78183;SDS011;67442;44.570;18.610;2023-04-24T09:41:27;41.15;;;13.45;;
78183;SDS011;67442;44.570;18.610;2023-04-24T09:43:55;33.65;;;12.27;;
78183;SDS011;67442;44.570;18.610;2023-04-24T09:46:30;40.75;;;13.57;;
78183;SDS011;67442;44.570;18.610;2023-04-24T09:51:36;35.95;;;13.30;;
78183;SDS011;67442;44.570;18.610;2023-04-24T09:54:04;34.70;;;12.80;;
78183;SDS011;67442;44.570;18.610;2023-04-24T09:56:39;39.75;;;12.48;;
78183;SDS011;67442;44.570;18.610;2023-04-24T09:59:11;40.53;;;13.45;;
78183;SDS011;67442;44.570;18.610;2023-04-24T10:01:38;42.28;;;13.95;;
78183;SDS011;67442;44.570;18.610;2023-04-24T10:04:15;40.28;;;13.52;;
78183;SDS011;67442;44.570;18.610;2023-04-24T10:06:43;37.17;;;13.32;;
78183;SDS011;67442;44.570;18.610;2023-04-24T10:09:10;34.00;;;13.00;;
78183;SDS011;67442;44.570;18.610;2023-04-24T10:11:43;34.22;;;13.63;;
78183;SDS011;67442;44.570;18.610;2023-04-24T10:14:13;34.83;;;12.73;;
78183;SDS011;67442;44.570;18.610;2023-04-24T10:16:43;34.60;;;12.73;;
78183;SDS011;67442;44.570;18.610;2023-04-24T10:19:12;32.25;;;12.07;;
78183;SDS011;67442;44.570;18.610;2023-04-24T10:21:41;37.88;;;12.73;;
78183;SDS011;67442;44.570;18.610;2023-04-24T10:24:15;34.80;;;11.88;;
78183;SDS011;67442;44.570;18.610;2023-04-24T10:27:05;27.33;;;11.27;;
78183;SDS011;67442;44.570;18.610;2023-04-24T10:29:37;32.70;;;12.63;;
78183;SDS011;67442;44.570;18.610;2023-04-24T10:32:10;30.73;;;11.75;;
78183;SDS011;67442;44.570;18.610;2023-04-24T10:34:37;34.67;;;12.40;;
78183;SDS011;67442;44.570;18.610;2023-04-24T10:37:05;35.97;;;12.27;;
78183;SDS011;67442;44.570;18.610;2023-04-24T10:39:32;28.02;;;12.18;;
78183;SDS011;67442;44.570;18.610;2023-04-24T10:42:00;34.85;;;12.80;;
78183;SDS011;67442;44.570;18.610;2023-04-24T10:44:35;34.90;;;13.38;;
78183;SDS011;67442;44.570;18.610;2023-04-24T10:47:02;39.70;;;13.00;;
78183;SDS011;67442;44.570;18.610;2023-04-24T10:49:30;31.02;;;12.38;;
78183;SDS011;67442;44.570;18.610;2023-04-24T10:52:02;27.63;;;11.88;;
78183;SDS011;67442;44.570;18.610;2023-04-24T11:00:15;30.50;;;11.30;;
78183;SDS011;67442;44.570;18.610;2023-04-24T11:02:46;28.63;;;11.18;;
78183;SDS011;67442;44.570;18.610;2023-04-24T11:05:21;29.30;;;11.60;;
78183;SDS011;67442;44.570;18.610;2023-04-24T11:10:58;35.65;;;12.27;;
78183;SDS011;67442;44.570;18.610;2023-04-24T11:16:46;29.45;;;11.07;;
78183;SDS011;67442;44.570;18.610;2023-04-24T11:19:21;28.23;;;11.20;;
78183;SDS011;67442;44.570;18.610;2023-04-24T11:24:29;30.75;;;11.77;;
78183;SDS011;67442;44.570;18.610;2023-04-24T11:29:39;28.55;;;10.90;;
78183;SDS011;67442;44.570;18.610;2023-04-24T11:32:16;28.33;;;10.95;;
78183;SDS011;67442;44.570;18.610;2023-04-24T11:35:04;28.73;;;11.23;;
78183;SDS011;67442;44.570;18.610;2023-04-24T11:37:44;31.65;;;12.05;;
78183;SDS011;67442;44.570;18.610;2023-04-24T11:40:14;30.35;;;11.20;;
78183;SDS011;67442;44.570;18.610;2023-04-24T11:42:46;27.77;;;10.85;;
78183;SDS011;67442;44.570;18.610;2023-04-24T11:45:15;31.58;;;11.93;;
78183;SDS011;67442;44.570;18.610;2023-04-24T11:47:43;28.10;;;11.90;;
78183;SDS011;67442;44.570;18.610;2023-04-24T11:50:11;31.05;;;12.10;;
78183;SDS011;67442;44.570;18.610;2023-04-24T11:52:46;25.63;;;10.55;;
78183;SDS011;67442;44.570;18.610;2023-04-24T11:57:42;26.00;;;10.80;;
78183;SDS011;67442;44.570;18.610;2023-04-24T12:00:28;28.52;;;11.50;;
78183;SDS011;67442;44.570;18.610;2023-04-24T12:03:05;24.20;;;10.52;;
78183;SDS011;67442;44.570;18.610;2023-04-24T12:05:36;26.65;;;11.38;;
78183;SDS011;67442;44.570;18.610;2023-04-24T12:08:03;28.60;;;10.65;;
78183;SDS011;67442;44.570;18.610;2023-04-24T12:10:32;27.17;;;10.60;;
78183;SDS011;67442;44.570;18.610;2023-04-24T12:13:00;26.65;;;10.25;;
78183;SDS011;67442;44.570;18.610;2023-04-24T12:15:27;25.63;;;10.07;;
78183;SDS011;67442;44.570;18.610;2023-04-24T12:17:55;28.23;;;10.80;;
78183;SDS011;67442;44.570;18.610;2023-04-24T12:20:26;29.55;;;10.55;;
78183;SDS011;67442;44.570;18.610;2023-04-24T12:22:59;26.60;;;10.40;;
78183;SDS011;67442;44.570;18.610;2023-04-24T12:25:33;27.98;;;10.02;;
78183;SDS011;67442;44.570;18.610;2023-04-24T12:30:30;23.25;;;10.02;;
78183;SDS011;67442;44.570;18.610;2023-04-24T12:32:58;23.80;;;10.05;;
78183;SDS011;67442;44.570;18.610;2023-04-24T12:35:30;24.65;;;10.43;;
78183;SDS011;67442;44.570;18.610;2023-04-24T12:38:05;22.95;;;9.32;;
78183;SDS011;67442;44.570;18.610;2023-04-24T12:40:33;25.52;;;9.65;;
78183;SDS011;67442;44.570;18.610;2023-04-24T12:43:00;22.25;;;9.57;;
78183;SDS011;67442;44.570;18.610;2023-04-24T12:45:33;21.50;;;9.90;;
78183;SDS011;67442;44.570;18.610;2023-04-24T12:48:01;22.67;;;10.20;;
78183;SDS011;67442;44.570;18.610;2023-04-24T12:50:29;20.45;;;9.52;;
78183;SDS011;67442;44.570;18.610;2023-04-24T12:52:56;23.73;;;9.77;;
78183;SDS011;67442;44.570;18.610;2023-04-24T12:55:23;24.60;;;9.65;;
78183;SDS011;67442;44.570;18.610;2023-04-24T12:57:51;26.67;;;10.18;;
78183;SDS011;67442;44.570;18.610;2023-04-24T13:00:20;28.67;;;9.52;;
78183;SDS011;67442;44.570;18.610;2023-04-24T13:02:47;26.50;;;10.18;;
78183;SDS011;67442;44.570;18.610;2023-04-24T13:05:15;23.13;;;9.43;;
78183;SDS011;67442;44.570;18.610;2023-04-24T13:07:42;22.00;;;9.07;;
78183;SDS011;67442;44.570;18.610;2023-04-24T13:10:10;19.48;;;9.13;;
78183;SDS011;67442;44.570;18.610;2023-04-24T13:12:38;22.88;;;10.05;;
78183;SDS011;67442;44.570;18.610;2023-04-24T13:15:06;24.00;;;10.20;;
78183;SDS011;67442;44.570;18.610;2023-04-24T13:17:34;20.15;;;9.65;;
78183;SDS011;67442;44.570;18.610;2023-04-24T13:20:02;20.55;;;9.60;;
78183;SDS011;67442;44.570;18.610;2023-04-24T13:22:30;21.50;;;9.57;;
78183;SDS011;67442;44.570;18.610;2023-04-24T13:24:58;21.77;;;9.00;;
78183;SDS011;67442;44.570;18.610;2023-04-24T13:27:26;19.80;;;9.32;;
78183;SDS011;67442;44.570;18.610;2023-04-24T13:29:54;19.17;;;9.18;;
78183;SDS011;67442;44.570;18.610;2023-04-24T13:32:21;23.10;;;9.90;;
78183;SDS011;67442;44.570;18.610;2023-04-24T13:34:48;20.27;;;9.43;;
78183;SDS011;67442;44.570;18.610;2023-04-24T13:37:15;22.85;;;9.57;;
78183;SDS011;67442;44.570;18.610;2023-04-24T13:39:43;23.05;;;9.85;;
78183;SDS011;67442;44.570;18.610;2023-04-24T13:42:10;22.80;;;9.00;;
78183;SDS011;67442;44.570;18.610;2023-04-24T13:44:37;21.92;;;9.32;;
78183;SDS011;67442;44.570;18.610;2023-04-24T13:47:05;22.90;;;9.38;;
78183;SDS011;67442;44.570;18.610;2023-04-24T13:49:32;19.95;;;9.15;;
78183;SDS011;67442;44.570;18.610;2023-04-24T13:52:03;21.65;;;9.00;;
78183;SDS011;67442;44.570;18.610;2023-04-24T13:54:30;19.00;;;9.13;;
78183;SDS011;67442;44.570;18.610;2023-04-24T13:56:57;22.52;;;8.98;;
78183;SDS011;67442;44.570;18.610;2023-04-24T13:59:29;21.95;;;9.25;;
78183;SDS011;67442;44.570;18.610;2023-04-24T14:01:56;20.65;;;8.60;;
78183;SDS011;67442;44.570;18.610;2023-04-24T14:04:28;18.73;;;8.57;;
78183;SDS011;67442;44.570;18.610;2023-04-24T14:06:55;18.08;;;9.10;;
78183;SDS011;67442;44.570;18.610;2023-04-24T14:09:22;22.75;;;9.40;;
78183;SDS011;67442;44.570;18.610;2023-04-24T14:11:49;18.75;;;8.52;;
78183;SDS011;67442;44.570;18.610;2023-04-24T14:14:17;21.10;;;9.40;;
78183;SDS011;67442;44.570;18.610;2023-04-24T14:16:44;19.52;;;8.63;;
78183;SDS011;67442;44.570;18.610;2023-04-24T14:19:11;19.88;;;8.63;;
78183;SDS011;67442;44.570;18.610;2023-04-24T14:21:42;19.17;;;8.48;;
78183;SDS011;67442;44.570;18.610;2023-04-24T14:24:10;20.48;;;9.75;;
78183;SDS011;67442;44.570;18.610;2023-04-24T14:26:37;22.08;;;8.95;;
78183;SDS011;67442;44.570;18.610;2023-04-24T14:29:08;17.58;;;7.95;;
78183;SDS011;67442;44.570;18.610;2023-04-24T14:31:35;23.58;;;8.90;;
78183;SDS011;67442;44.570;18.610;2023-04-24T14:34:05;20.85;;;8.60;;
78183;SDS011;67442;44.570;18.610;2023-04-24T14:36:33;15.02;;;7.40;;
78183;SDS011;67442;44.570;18.610;2023-04-24T14:39:04;21.38;;;8.95;;
78183;SDS011;67442;44.570;18.610;2023-04-24T14:41:31;23.58;;;9.18;;
78183;SDS011;67442;44.570;18.610;2023-04-24T14:44:01;23.02;;;9.13;;
78183;SDS011;67442;44.570;18.610;2023-04-24T14:46:29;17.52;;;8.57;;
78183;SDS011;67442;44.570;18.610;2023-04-24T14:48:59;17.13;;;8.48;;